sensor_id;sensor_type;location;lat;lon;timestamp;P1;durP1;ratioP1;P2;durP2;ratioP2
15573;SDS011;7888;46.748;8.102;2022-09-01T00:01:45;2.90;;;2.10;;
15573;SDS011;7888;46.748;8.102;2022-09-01T00:04:17;2.08;;;1.90;;
15573;SDS011;7888;46.748;8.102;2022-09-01T00:06:51;1.97;;;1.77;;
15573;SDS011;7888;46.748;8.102;2022-09-01T00:09:19;1.83;;;1.63;;
15573;SDS011;7888;46.748;8.102;2022-09-01T00:11:50;1.92;;;1.80;;
15573;SDS011;7888;46.748;8.102;2022-09-01T00:14:20;1.87;;;1.77;;
15573;SDS011;7888;46.748;8.102;2022-09-01T00:16:51;2.33;;;1.80;;
15573;SDS011;7888;46.748;8.102;2022-09-01T00:19:18;2.10;;;1.90;;
15573;SDS011;7888;46.748;8.102;2022-09-01T00:21:45;2.03;;;1.83;;
15573;SDS011;7888;46.748;8.102;2022-09-01T00:24:12;2.20;;;1.40;;
15573;SDS011;7888;46.748;8.102;2022-09-01T00:26:40;1.58;;;1.48;;
15573;SDS011;7888;46.748;8.102;2022-09-01T00:29:07;1.47;;;1.37;;
15573;SDS011;7888;46.748;8.102;2022-09-01T00:31:34;1.80;;;1.30;;
15573;SDS011;7888;46.748;8.102;2022-09-01T00:34:01;1.63;;;1.50;;
15573;SDS011;7888;46.748;8.102;2022-09-01T00:36:27;1.50;;;1.40;;
15573;SDS011;7888;46.748;8.102;2022-09-01T00:38:54;2.03;;;1.83;;
15573;SDS011;7888;46.748;8.102;2022-09-01T00:41:21;2.13;;;1.73;;
15573;SDS011;7888;46.748;8.102;2022-09-01T00:43:51;1.60;;;1.50;;
15573;SDS011;7888;46.748;8.102;2022-09-01T00:46:34;2.00;;;1.80;;
15573;SDS011;7888;46.748;8.102;2022-09-01T00:49:08;2.07;;;1.97;;
15573;SDS011;7888;46.748;8.102;2022-09-01T00:52:06;2.10;;;1.90;;
15573;SDS011;7888;46.748;8.102;2022-09-01T00:54:43;1.77;;;1.60;;
15573;SDS011;7888;46.748;8.102;2022-09-01T00:57:14;1.40;;;1.30;;
15573;SDS011;7888;46.748;8.102;2022-09-01T01:02:47;2.33;;;1.17;;
15573;SDS011;7888;46.748;8.102;2022-09-01T01:05:21;1.63;;;1.20;;
15573;SDS011;7888;46.748;8.102;2022-09-01T01:07:57;1.17;;;1.07;;
15573;SDS011;7888;46.748;8.102;2022-09-01T01:10:26;1.10;;;1.00;;
15573;SDS011;7888;46.748;8.102;2022-09-01T01:12:59;1.10;;;1.00;;
15573;SDS011;7888;46.748;8.102;2022-09-01T01:15:27;1.40;;;1.30;;
15573;SDS011;7888;46.748;8.102;2022-09-01T01:17:54;2.07;;;1.00;;
15573;SDS011;7888;46.748;8.102;2022-09-01T01:20:20;1.33;;;1.10;;
15573;SDS011;7888;46.748;8.102;2022-09-01T01:23:20;1.10;;;1.10;;
15573;SDS011;7888;46.748;8.102;2022-09-01T01:25:58;1.77;;;1.20;;
15573;SDS011;7888;46.748;8.102;2022-09-01T01:28:29;2.03;;;1.20;;
15573;SDS011;7888;46.748;8.102;2022-09-01T01:30:59;1.93;;;1.20;;
15573;SDS011;7888;46.748;8.102;2022-09-01T01:33:38;1.63;;;1.03;;
15573;SDS011;7888;46.748;8.102;2022-09-01T01:36:10;1.50;;;1.20;;
15573;SDS011;7888;46.748;8.102;2022-09-01T01:38:56;1.80;;;1.17;;
15573;SDS011;7888;46.748;8.102;2022-09-01T01:41:28;1.10;;;1.00;;
15573;SDS011;7888;46.748;8.102;2022-09-01T01:43:58;1.50;;;1.27;;
15573;SDS011;7888;46.748;8.102;2022-09-01T01:46:29;1.87;;;1.43;;
15573;SDS011;7888;46.748;8.102;2022-09-01T01:48:58;1.50;;;1.40;;
15573;SDS011;7888;46.748;8.102;2022-09-01T01:51:26;1.17;;;1.10;;
15573;SDS011;7888;46.748;8.102;2022-09-01T01:53:57;2.00;;;1.40;;
15573;SDS011;7888;46.748;8.102;2022-09-01T01:56:25;1.30;;;1.03;;
15573;SDS011;7888;46.748;8.102;2022-09-01T01:58:52;2.37;;;1.40;;
15573;SDS011;7888;46.748;8.102;2022-09-01T02:01:22;2.27;;;1.27;;
15573;SDS011;7888;46.748;8.102;2022-09-01T02:03:53;2.03;;;1.00;;
15573;SDS011;7888;46.748;8.102;2022-09-01T02:06:22;2.00;;;1.20;;
15573;SDS011;7888;46.748;8.102;2022-09-01T02:08:51;1.13;;;1.10;;
15573;SDS011;7888;46.748;8.102;2022-09-01T02:11:27;1.17;;;1.10;;
15573;SDS011;7888;46.748;8.102;2022-09-01T02:13:54;1.70;;;1.60;;
15573;SDS011;7888;46.748;8.102;2022-09-01T02:16:24;1.70;;;1.60;;
15573;SDS011;7888;46.748;8.102;2022-09-01T02:18:53;2.30;;;1.30;;
15573;SDS011;7888;46.748;8.102;2022-09-01T02:21:21;1.80;;;1.50;;
15573;SDS011;7888;46.748;8.102;2022-09-01T02:23:50;2.03;;;1.50;;
15573;SDS011;7888;46.748;8.102;2022-09-01T02:26:26;1.40;;;1.30;;
15573;SDS011;7888;46.748;8.102;2022-09-01T02:28:56;1.47;;;1.20;;
15573;SDS011;7888;46.748;8.102;2022-09-01T02:31:28;1.40;;;1.20;;
15573;SDS011;7888;46.748;8.102;2022-09-01T02:33:59;1.40;;;1.30;;
15573;SDS011;7888;46.748;8.102;2022-09-01T02:36:27;1.40;;;1.30;;
15573;SDS011;7888;46.748;8.102;2022-09-01T02:38:56;1.60;;;1.50;;
15573;SDS011;7888;46.748;8.102;2022-09-01T02:41:22;1.83;;;1.50;;
15573;SDS011;7888;46.748;8.102;2022-09-01T02:43:54;1.47;;;1.37;;
15573;SDS011;7888;46.748;8.102;2022-09-01T02:46:20;1.40;;;1.30;;
15573;SDS011;7888;46.748;8.102;2022-09-01T02:48:47;1.00;;;0.90;;
15573;SDS011;7888;46.748;8.102;2022-09-01T02:51:16;1.27;;;1.17;;
15573;SDS011;7888;46.748;8.102;2022-09-01T02:53:45;1.53;;;1.23;;
15573;SDS011;7888;46.748;8.102;2022-09-01T02:56:17;2.60;;;1.40;;
15573;SDS011;7888;46.748;8.102;2022-09-01T02:58:51;1.70;;;1.30;;
15573;SDS011;7888;46.748;8.102;2022-09-01T03:01:22;1.60;;;1.30;;
15573;SDS011;7888;46.748;8.102;2022-09-01T03:03:54;1.10;;;1.07;;
15573;SDS011;7888;46.748;8.102;2022-09-01T03:06:26;1.33;;;1.23;;
15573;SDS011;7888;46.748;8.102;2022-09-01T03:08:56;1.30;;;1.17;;
15573;SDS011;7888;46.748;8.102;2022-09-01T03:11:27;1.33;;;1.23;;
15573;SDS011;7888;46.748;8.102;2022-09-01T03:13:55;1.00;;;1.00;;
15573;SDS011;7888;46.748;8.102;2022-09-01T03:16:22;1.00;;;1.00;;
15573;SDS011;7888;46.748;8.102;2022-09-01T03:18:48;1.30;;;1.10;;
15573;SDS011;7888;46.748;8.102;2022-09-01T03:21:14;1.40;;;1.30;;
15573;SDS011;7888;46.748;8.102;2022-09-01T03:23:41;0.97;;;0.87;;
15573;SDS011;7888;46.748;8.102;2022-09-01T03:26:09;1.37;;;1.27;;
15573;SDS011;7888;46.748;8.102;2022-09-01T03:28:36;1.30;;;1.20;;
15573;SDS011;7888;46.748;8.102;2022-09-01T03:31:02;1.33;;;1.20;;
15573;SDS011;7888;46.748;8.102;2022-09-01T03:33:28;1.20;;;1.13;;
15573;SDS011;7888;46.748;8.102;2022-09-01T03:35:56;1.20;;;1.10;;
15573;SDS011;7888;46.748;8.102;2022-09-01T03:38:22;1.23;;;1.17;;
15573;SDS011;7888;46.748;8.102;2022-09-01T03:40:51;1.30;;;1.20;;
15573;SDS011;7888;46.748;8.102;2022-09-01T03:43:26;1.50;;;1.40;;
15573;SDS011;7888;46.748;8.102;2022-09-01T03:45:55;1.50;;;1.33;;
15573;SDS011;7888;46.748;8.102;2022-09-01T03:48:25;1.50;;;1.40;;
15573;SDS011;7888;46.748;8.102;2022-09-01T03:50:56;1.47;;;1.17;;
15573;SDS011;7888;46.748;8.102;2022-09-01T03:53:28;1.50;;;1.40;;
15573;SDS011;7888;46.748;8.102;2022-09-01T03:55:58;1.47;;;1.17;;
15573;SDS011;7888;46.748;8.102;2022-09-01T03:58:24;1.90;;;1.50;;
15573;SDS011;7888;46.748;8.102;2022-09-01T04:00:51;1.73;;;1.40;;
15573;SDS011;7888;46.748;8.102;2022-09-01T04:03:24;1.40;;;1.30;;
15573;SDS011;7888;46.748;8.102;2022-09-01T04:05:53;1.20;;;1.10;;
15573;SDS011;7888;46.748;8.102;2022-09-01T04:08:20;1.40;;;1.30;;
15573;SDS011;7888;46.748;8.102;2022-09-01T04:10:53;1.40;;;1.30;;
15573;SDS011;7888;46.748;8.102;2022-09-01T04:13:21;1.20;;;1.10;;
15573;SDS011;7888;46.748;8.102;2022-09-01T04:15:54;1.40;;;1.30;;
15573;SDS011;7888;46.748;8.102;2022-09-01T04:18:22;1.70;;;1.40;;
15573;SDS011;7888;46.748;8.102;2022-09-01T04:20:52;1.57;;;1.30;;
15573;SDS011;7888;46.748;8.102;2022-09-01T04:23:23;2.10;;;1.50;;
15573;SDS011;7888;46.748;8.102;2022-09-01T04:25:56;1.53;;;1.43;;
15573;SDS011;7888;46.748;8.102;2022-09-01T04:28:33;1.50;;;1.40;;
15573;SDS011;7888;46.748;8.102;2022-09-01T04:31:08;1.50;;;1.40;;
15573;SDS011;7888;46.748;8.102;2022-09-01T04:33:41;1.40;;;1.30;;
15573;SDS011;7888;46.748;8.102;2022-09-01T04:36:14;1.40;;;1.30;;
15573;SDS011;7888;46.748;8.102;2022-09-01T04:38:44;3.03;;;1.20;;
15573;SDS011;7888;46.748;8.102;2022-09-01T04:41:13;1.50;;;1.40;;
15573;SDS011;7888;46.748;8.102;2022-09-01T04:43:44;1.57;;;1.47;;
15573;SDS011;7888;46.748;8.102;2022-09-01T04:46:15;1.50;;;1.33;;
15573;SDS011;7888;46.748;8.102;2022-09-01T04:48:45;1.40;;;1.30;;
15573;SDS011;7888;46.748;8.102;2022-09-01T04:51:12;1.87;;;1.40;;
15573;SDS011;7888;46.748;8.102;2022-09-01T04:53:39;1.70;;;1.60;;
15573;SDS011;7888;46.748;8.102;2022-09-01T04:56:13;2.00;;;1.40;;
15573;SDS011;7888;46.748;8.102;2022-09-01T04:58:47;1.50;;;1.40;;
15573;SDS011;7888;46.748;8.102;2022-09-01T05:01:15;1.60;;;1.50;;
15573;SDS011;7888;46.748;8.102;2022-09-01T05:03:47;2.50;;;1.57;;
15573;SDS011;7888;46.748;8.102;2022-09-01T05:06:20;1.50;;;1.40;;
15573;SDS011;7888;46.748;8.102;2022-09-01T05:08:47;1.30;;;1.10;;
15573;SDS011;7888;46.748;8.102;2022-09-01T05:11:14;1.50;;;1.40;;
15573;SDS011;7888;46.748;8.102;2022-09-01T05:13:45;2.13;;;1.50;;
15573;SDS011;7888;46.748;8.102;2022-09-01T05:16:14;1.40;;;1.30;;
15573;SDS011;7888;46.748;8.102;2022-09-01T05:18:46;1.60;;;1.50;;
15573;SDS011;7888;46.748;8.102;2022-09-01T05:21:16;6.07;;;1.40;;
15573;SDS011;7888;46.748;8.102;2022-09-01T05:23:48;1.53;;;1.30;;
15573;SDS011;7888;46.748;8.102;2022-09-01T05:26:20;2.33;;;1.53;;
15573;SDS011;7888;46.748;8.102;2022-09-01T05:28:52;3.20;;;1.27;;
15573;SDS011;7888;46.748;8.102;2022-09-01T05:31:24;1.60;;;1.33;;
15573;SDS011;7888;46.748;8.102;2022-09-01T05:33:53;1.60;;;1.50;;
15573;SDS011;7888;46.748;8.102;2022-09-01T05:36:22;1.37;;;1.23;;
15573;SDS011;7888;46.748;8.102;2022-09-01T05:38:49;1.40;;;1.30;;
15573;SDS011;7888;46.748;8.102;2022-09-01T05:41:17;1.40;;;1.30;;
15573;SDS011;7888;46.748;8.102;2022-09-01T05:43:45;1.50;;;1.40;;
15573;SDS011;7888;46.748;8.102;2022-09-01T05:46:17;2.17;;;1.27;;
15573;SDS011;7888;46.748;8.102;2022-09-01T05:48:48;2.00;;;1.67;;
15573;SDS011;7888;46.748;8.102;2022-09-01T05:51:16;2.43;;;1.60;;
15573;SDS011;7888;46.748;8.102;2022-09-01T05:53:50;2.20;;;1.53;;
15573;SDS011;7888;46.748;8.102;2022-09-01T05:56:19;3.03;;;1.40;;
15573;SDS011;7888;46.748;8.102;2022-09-01T05:58:46;2.00;;;1.60;;
15573;SDS011;7888;46.748;8.102;2022-09-01T06:01:16;2.20;;;1.77;;
15573;SDS011;7888;46.748;8.102;2022-09-01T06:03:52;2.77;;;1.80;;
15573;SDS011;7888;46.748;8.102;2022-09-01T06:06:25;1.80;;;1.50;;
15573;SDS011;7888;46.748;8.102;2022-09-01T06:08:56;2.70;;;1.40;;
15573;SDS011;7888;46.748;8.102;2022-09-01T06:11:23;1.63;;;1.53;;
15573;SDS011;7888;46.748;8.102;2022-09-01T06:13:51;4.37;;;2.57;;
15573;SDS011;7888;46.748;8.102;2022-09-01T06:16:19;1.87;;;1.57;;
15573;SDS011;7888;46.748;8.102;2022-09-01T06:18:48;1.43;;;1.33;;
15573;SDS011;7888;46.748;8.102;2022-09-01T06:21:17;1.83;;;1.53;;
15573;SDS011;7888;46.748;8.102;2022-09-01T06:23:46;8.17;;;7.33;;
15573;SDS011;7888;46.748;8.102;2022-09-01T06:26:22;9.03;;;8.10;;
15573;SDS011;7888;46.748;8.102;2022-09-01T06:28:56;6.03;;;4.67;;
15573;SDS011;7888;46.748;8.102;2022-09-01T06:31:33;4.20;;;3.70;;
15573;SDS011;7888;46.748;8.102;2022-09-01T06:34:04;2.70;;;2.50;;
15573;SDS011;7888;46.748;8.102;2022-09-01T06:36:34;3.77;;;3.40;;
15573;SDS011;7888;46.748;8.102;2022-09-01T06:39:04;3.50;;;2.90;;
15573;SDS011;7888;46.748;8.102;2022-09-01T06:41:31;2.37;;;2.17;;
15573;SDS011;7888;46.748;8.102;2022-09-01T06:43:57;2.00;;;1.90;;
15573;SDS011;7888;46.748;8.102;2022-09-01T06:46:24;2.27;;;1.90;;
15573;SDS011;7888;46.748;8.102;2022-09-01T06:48:51;2.93;;;1.73;;
15573;SDS011;7888;46.748;8.102;2022-09-01T06:51:19;4.00;;;1.90;;
15573;SDS011;7888;46.748;8.102;2022-09-01T06:53:47;2.90;;;1.70;;
15573;SDS011;7888;46.748;8.102;2022-09-01T06:56:21;2.00;;;1.70;;
15573;SDS011;7888;46.748;8.102;2022-09-01T06:58:51;1.83;;;1.70;;
15573;SDS011;7888;46.748;8.102;2022-09-01T07:01:18;1.83;;;1.73;;
15573;SDS011;7888;46.748;8.102;2022-09-01T07:03:47;1.80;;;1.53;;
15573;SDS011;7888;46.748;8.102;2022-09-01T07:06:16;4.40;;;1.92;;
15573;SDS011;7888;46.748;8.102;2022-09-01T07:08:48;3.10;;;2.00;;
15573;SDS011;7888;46.748;8.102;2022-09-01T07:11:18;2.00;;;1.77;;
15573;SDS011;7888;46.748;8.102;2022-09-01T07:13:51;4.43;;;1.90;;
15573;SDS011;7888;46.748;8.102;2022-09-01T07:16:22;1.60;;;1.50;;
15573;SDS011;7888;46.748;8.102;2022-09-01T07:18:53;1.83;;;1.73;;
15573;SDS011;7888;46.748;8.102;2022-09-01T07:21:24;2.00;;;1.90;;
15573;SDS011;7888;46.748;8.102;2022-09-01T07:23:52;1.97;;;1.80;;
15573;SDS011;7888;46.748;8.102;2022-09-01T07:26:19;1.80;;;1.70;;
15573;SDS011;7888;46.748;8.102;2022-09-01T07:28:49;5.37;;;2.80;;
15573;SDS011;7888;46.748;8.102;2022-09-01T07:31:17;3.20;;;2.67;;
15573;SDS011;7888;46.748;8.102;2022-09-01T07:33:50;2.50;;;2.17;;
15573;SDS011;7888;46.748;8.102;2022-09-01T07:36:19;2.77;;;2.10;;
15573;SDS011;7888;46.748;8.102;2022-09-01T07:38:45;2.27;;;2.10;;
15573;SDS011;7888;46.748;8.102;2022-09-01T07:41:17;2.53;;;2.33;;
15573;SDS011;7888;46.748;8.102;2022-09-01T07:43:46;5.63;;;2.70;;
15573;SDS011;7888;46.748;8.102;2022-09-01T07:46:15;2.10;;;1.90;;
15573;SDS011;7888;46.748;8.102;2022-09-01T07:48:41;2.25;;;2.05;;
15573;SDS011;7888;46.748;8.102;2022-09-01T07:51:07;2.88;;;2.38;;
15573;SDS011;7888;46.748;8.102;2022-09-01T07:53:36;5.93;;;2.30;;
15573;SDS011;7888;46.748;8.102;2022-09-01T07:56:06;2.05;;;1.85;;
15573;SDS011;7888;46.748;8.102;2022-09-01T07:58:34;4.25;;;2.25;;
15573;SDS011;7888;46.748;8.102;2022-09-01T08:01:13;2.60;;;2.40;;
15573;SDS011;7888;46.748;8.102;2022-09-01T08:03:46;2.75;;;1.77;;
15573;SDS011;7888;46.748;8.102;2022-09-01T08:06:16;2.50;;;1.90;;
15573;SDS011;7888;46.748;8.102;2022-09-01T08:08:46;3.72;;;1.90;;
15573;SDS011;7888;46.748;8.102;2022-09-01T08:11:18;2.67;;;2.40;;
15573;SDS011;7888;46.748;8.102;2022-09-01T08:13:49;2.22;;;2.08;;
15573;SDS011;7888;46.748;8.102;2022-09-01T08:16:17;2.30;;;2.10;;
15573;SDS011;7888;46.748;8.102;2022-09-01T08:18:44;2.63;;;2.42;;
15573;SDS011;7888;46.748;8.102;2022-09-01T08:21:12;4.72;;;2.60;;
15573;SDS011;7888;46.748;8.102;2022-09-01T08:23:40;3.33;;;2.97;;
15573;SDS011;7888;46.748;8.102;2022-09-01T08:26:07;3.78;;;3.47;;
15573;SDS011;7888;46.748;8.102;2022-09-01T08:28:37;2.95;;;2.65;;
15573;SDS011;7888;46.748;8.102;2022-09-01T08:31:08;4.22;;;3.58;;
15573;SDS011;7888;46.748;8.102;2022-09-01T08:33:37;5.88;;;3.35;;
15573;SDS011;7888;46.748;8.102;2022-09-01T08:36:09;3.13;;;2.85;;
15573;SDS011;7888;46.748;8.102;2022-09-01T08:38:38;3.08;;;2.88;;
15573;SDS011;7888;46.748;8.102;2022-09-01T08:41:12;3.10;;;2.72;;
15573;SDS011;7888;46.748;8.102;2022-09-01T08:44:11;3.03;;;2.72;;
15573;SDS011;7888;46.748;8.102;2022-09-01T08:46:53;3.75;;;3.10;;
15573;SDS011;7888;46.748;8.102;2022-09-01T08:49:27;3.10;;;2.80;;
15573;SDS011;7888;46.748;8.102;2022-09-01T08:52:02;3.72;;;3.42;;
15573;SDS011;7888;46.748;8.102;2022-09-01T08:57:36;2.40;;;2.10;;
15573;SDS011;7888;46.748;8.102;2022-09-01T09:00:07;2.80;;;2.60;;
15573;SDS011;7888;46.748;8.102;2022-09-01T09:06:07;2.60;;;2.40;;
15573;SDS011;7888;46.748;8.102;2022-09-01T09:14:45;2.88;;;2.00;;
15573;SDS011;7888;46.748;8.102;2022-09-01T09:17:42;2.85;;;2.28;;
15573;SDS011;7888;46.748;8.102;2022-09-01T09:20:20;2.55;;;2.35;;
15573;SDS011;7888;46.748;8.102;2022-09-01T09:22:46;2.38;;;2.28;;
15573;SDS011;7888;46.748;8.102;2022-09-01T09:25:14;4.72;;;3.03;;
15573;SDS011;7888;46.748;8.102;2022-09-01T09:27:43;3.63;;;2.60;;
15573;SDS011;7888;46.748;8.102;2022-09-01T09:30:19;2.63;;;2.35;;
15573;SDS011;7888;46.748;8.102;2022-09-01T09:32:54;2.70;;;2.50;;
15573;SDS011;7888;46.748;8.102;2022-09-01T09:35:31;3.05;;;2.25;;
15573;SDS011;7888;46.748;8.102;2022-09-01T09:41:18;2.63;;;2.42;;
15573;SDS011;7888;46.748;8.102;2022-09-01T09:43:56;2.47;;;2.28;;
15573;SDS011;7888;46.748;8.102;2022-09-01T09:51:45;2.50;;;2.30;;
15573;SDS011;7888;46.748;8.102;2022-09-01T09:57:04;2.50;;;2.30;;
15573;SDS011;7888;46.748;8.102;2022-09-01T09:59:37;3.65;;;2.58;;
15573;SDS011;7888;46.748;8.102;2022-09-01T10:02:15;2.58;;;2.38;;
15573;SDS011;7888;46.748;8.102;2022-09-01T10:04:42;2.60;;;2.30;;
15573;SDS011;7888;46.748;8.102;2022-09-01T10:10:02;2.40;;;2.20;;
15573;SDS011;7888;46.748;8.102;2022-09-01T10:12:32;2.13;;;1.98;;
15573;SDS011;7888;46.748;8.102;2022-09-01T10:15:03;2.80;;;2.28;;
15573;SDS011;7888;46.748;8.102;2022-09-01T10:17:35;2.13;;;2.03;;
15573;SDS011;7888;46.748;8.102;2022-09-01T10:20:27;2.60;;;1.80;;
15573;SDS011;7888;46.748;8.102;2022-09-01T10:22:52;1.83;;;1.73;;
15573;SDS011;7888;46.748;8.102;2022-09-01T10:25:19;2.83;;;2.63;;
15573;SDS011;7888;46.748;8.102;2022-09-01T10:27:55;2.10;;;2.00;;
15573;SDS011;7888;46.748;8.102;2022-09-01T10:30:35;2.22;;;1.90;;
15573;SDS011;7888;46.748;8.102;2022-09-01T10:33:07;2.25;;;2.00;;
15573;SDS011;7888;46.748;8.102;2022-09-01T10:35:36;2.78;;;2.15;;
15573;SDS011;7888;46.748;8.102;2022-09-01T10:38:13;2.50;;;2.30;;
15573;SDS011;7888;46.748;8.102;2022-09-01T10:40:44;2.38;;;2.25;;
15573;SDS011;7888;46.748;8.102;2022-09-01T10:46:07;2.63;;;2.42;;
15573;SDS011;7888;46.748;8.102;2022-09-01T10:48:54;2.83;;;1.98;;
15573;SDS011;7888;46.748;8.102;2022-09-01T10:53:51;2.50;;;2.30;;
15573;SDS011;7888;46.748;8.102;2022-09-01T10:56:34;4.50;;;2.58;;
15573;SDS011;7888;46.748;8.102;2022-09-01T11:05:09;3.53;;;2.60;;
15573;SDS011;7888;46.748;8.102;2022-09-01T11:18:28;4.55;;;2.50;;
15573;SDS011;7888;46.748;8.102;2022-09-01T11:21:12;2.63;;;2.42;;
15573;SDS011;7888;46.748;8.102;2022-09-01T11:27:05;3.92;;;2.50;;
15573;SDS011;7888;46.748;8.102;2022-09-01T11:32:25;2.60;;;2.40;;
15573;SDS011;7888;46.748;8.102;2022-09-01T11:34:59;2.78;;;2.58;;
15573;SDS011;7888;46.748;8.102;2022-09-01T11:37:31;3.50;;;2.97;;
15573;SDS011;7888;46.748;8.102;2022-09-01T11:39:58;2.55;;;2.35;;
15573;SDS011;7888;46.748;8.102;2022-09-01T11:42:41;3.58;;;2.58;;
15573;SDS011;7888;46.748;8.102;2022-09-01T11:45:15;2.15;;;2.05;;
15573;SDS011;7888;46.748;8.102;2022-09-01T11:47:48;2.50;;;2.05;;
15573;SDS011;7888;46.748;8.102;2022-09-01T11:50:35;2.83;;;2.53;;
15573;SDS011;7888;46.748;8.102;2022-09-01T11:53:05;2.75;;;2.55;;
15573;SDS011;7888;46.748;8.102;2022-09-01T11:55:47;2.78;;;2.40;;
15573;SDS011;7888;46.748;8.102;2022-09-01T12:01:10;2.58;;;2.38;;
15573;SDS011;7888;46.748;8.102;2022-09-01T12:03:44;2.65;;;2.45;;
15573;SDS011;7888;46.748;8.102;2022-09-01T12:06:23;3.70;;;2.60;;
15573;SDS011;7888;46.748;8.102;2022-09-01T12:08:55;3.28;;;2.35;;
15573;SDS011;7888;46.748;8.102;2022-09-01T12:11:24;2.30;;;2.10;;
15573;SDS011;7888;46.748;8.102;2022-09-01T12:13:58;2.30;;;2.00;;
15573;SDS011;7888;46.748;8.102;2022-09-01T12:16:31;2.40;;;2.25;;
15573;SDS011;7888;46.748;8.102;2022-09-01T12:19:01;2.70;;;2.50;;
15573;SDS011;7888;46.748;8.102;2022-09-01T12:21:31;1.95;;;1.85;;
15573;SDS011;7888;46.748;8.102;2022-09-01T12:24:11;2.90;;;2.70;;
15573;SDS011;7888;46.748;8.102;2022-09-01T12:26:48;2.22;;;2.13;;
15573;SDS011;7888;46.748;8.102;2022-09-01T12:29:19;2.85;;;2.58;;
15573;SDS011;7888;46.748;8.102;2022-09-01T12:31:47;2.60;;;2.10;;
15573;SDS011;7888;46.748;8.102;2022-09-01T12:37:25;2.80;;;1.92;;
15573;SDS011;7888;46.748;8.102;2022-09-01T12:39:52;2.20;;;1.98;;
15573;SDS011;7888;46.748;8.102;2022-09-01T12:42:30;2.47;;;2.28;;
15573;SDS011;7888;46.748;8.102;2022-09-01T12:44:59;2.55;;;2.35;;
15573;SDS011;7888;46.748;8.102;2022-09-01T12:49:58;3.00;;;2.70;;
15573;SDS011;7888;46.748;8.102;2022-09-01T12:52:36;9.32;;;4.68;;
15573;SDS011;7888;46.748;8.102;2022-09-01T12:55:23;3.90;;;3.05;;
15573;SDS011;7888;46.748;8.102;2022-09-01T12:57:53;2.80;;;2.60;;
15573;SDS011;7888;46.748;8.102;2022-09-01T13:00:25;2.42;;;2.20;;
15573;SDS011;7888;46.748;8.102;2022-09-01T13:08:06;2.25;;;2.05;;
15573;SDS011;7888;46.748;8.102;2022-09-01T13:10:48;5.30;;;2.08;;
15573;SDS011;7888;46.748;8.102;2022-09-01T13:13:17;2.30;;;2.10;;
15573;SDS011;7888;46.748;8.102;2022-09-01T13:15:49;3.63;;;1.85;;
15573;SDS011;7888;46.748;8.102;2022-09-01T13:18:20;2.30;;;2.10;;
15573;SDS011;7888;46.748;8.102;2022-09-01T13:20:49;2.10;;;2.00;;
15573;SDS011;7888;46.748;8.102;2022-09-01T13:23:17;2.35;;;2.10;;
15573;SDS011;7888;46.748;8.102;2022-09-01T13:25:44;2.22;;;2.05;;
15573;SDS011;7888;46.748;8.102;2022-09-01T13:28:13;2.22;;;1.98;;
15573;SDS011;7888;46.748;8.102;2022-09-01T13:30:46;2.08;;;1.92;;
15573;SDS011;7888;46.748;8.102;2022-09-01T13:33:21;2.13;;;2.03;;
15573;SDS011;7888;46.748;8.102;2022-09-01T13:35:47;2.40;;;2.20;;
15573;SDS011;7888;46.748;8.102;2022-09-01T13:38:14;2.33;;;2.22;;
15573;SDS011;7888;46.748;8.102;2022-09-01T13:40:42;2.40;;;1.85;;
15573;SDS011;7888;46.748;8.102;2022-09-01T13:43:10;2.38;;;2.15;;
15573;SDS011;7888;46.748;8.102;2022-09-01T13:45:37;2.40;;;2.20;;
15573;SDS011;7888;46.748;8.102;2022-09-01T13:48:05;2.97;;;2.60;;
15573;SDS011;7888;46.748;8.102;2022-09-01T13:50:32;2.25;;;2.10;;
15573;SDS011;7888;46.748;8.102;2022-09-01T13:52:59;2.78;;;2.08;;
15573;SDS011;7888;46.748;8.102;2022-09-01T13:55:26;2.10;;;1.92;;
15573;SDS011;7888;46.748;8.102;2022-09-01T13:57:56;2.65;;;2.45;;
15573;SDS011;7888;46.748;8.102;2022-09-01T14:00:24;2.33;;;2.17;;
15573;SDS011;7888;46.748;8.102;2022-09-01T14:02:54;2.08;;;1.90;;
15573;SDS011;7888;46.748;8.102;2022-09-01T14:05:25;3.50;;;2.20;;
15573;SDS011;7888;46.748;8.102;2022-09-01T14:07:59;2.35;;;2.20;;
15573;SDS011;7888;46.748;8.102;2022-09-01T14:10:26;2.50;;;2.30;;
15573;SDS011;7888;46.748;8.102;2022-09-01T14:12:55;2.58;;;2.38;;
15573;SDS011;7888;46.748;8.102;2022-09-01T14:15:22;2.63;;;2.42;;
15573;SDS011;7888;46.748;8.102;2022-09-01T14:17:50;3.53;;;2.65;;
15573;SDS011;7888;46.748;8.102;2022-09-01T14:20:19;2.40;;;2.25;;
15573;SDS011;7888;46.748;8.102;2022-09-01T14:22:49;3.55;;;2.70;;
15573;SDS011;7888;46.748;8.102;2022-09-01T14:25:16;4.80;;;4.40;;
15573;SDS011;7888;46.748;8.102;2022-09-01T14:27:44;3.78;;;2.85;;
15573;SDS011;7888;46.748;8.102;2022-09-01T14:30:13;2.25;;;2.13;;
15573;SDS011;7888;46.748;8.102;2022-09-01T14:32:46;2.45;;;2.22;;
15573;SDS011;7888;46.748;8.102;2022-09-01T14:35:14;1.98;;;1.88;;
15573;SDS011;7888;46.748;8.102;2022-09-01T14:37:42;2.17;;;2.08;;
15573;SDS011;7888;46.748;8.102;2022-09-01T14:40:10;2.90;;;1.88;;
15573;SDS011;7888;46.748;8.102;2022-09-01T14:42:41;2.10;;;1.90;;
15573;SDS011;7888;46.748;8.102;2022-09-01T14:45:13;3.53;;;1.98;;
15573;SDS011;7888;46.748;8.102;2022-09-01T14:47:42;2.20;;;2.10;;
15573;SDS011;7888;46.748;8.102;2022-09-01T14:50:10;2.17;;;1.98;;
15573;SDS011;7888;46.748;8.102;2022-09-01T14:52:36;3.25;;;2.05;;
15573;SDS011;7888;46.748;8.102;2022-09-01T14:55:03;2.10;;;1.90;;
15573;SDS011;7888;46.748;8.102;2022-09-01T14:57:31;2.13;;;2.03;;
15573;SDS011;7888;46.748;8.102;2022-09-01T14:59:57;2.40;;;2.20;;
15573;SDS011;7888;46.748;8.102;2022-09-01T15:02:23;2.35;;;2.15;;
15573;SDS011;7888;46.748;8.102;2022-09-01T15:04:52;2.65;;;2.20;;
15573;SDS011;7888;46.748;8.102;2022-09-01T15:07:18;2.45;;;2.25;;
15573;SDS011;7888;46.748;8.102;2022-09-01T15:09:45;2.30;;;2.20;;
15573;SDS011;7888;46.748;8.102;2022-09-01T15:12:11;2.40;;;2.20;;
15573;SDS011;7888;46.748;8.102;2022-09-01T15:14:37;2.30;;;2.10;;
15573;SDS011;7888;46.748;8.102;2022-09-01T15:17:03;2.97;;;2.10;;
15573;SDS011;7888;46.748;8.102;2022-09-01T15:19:30;1.95;;;1.85;;
15573;SDS011;7888;46.748;8.102;2022-09-01T15:21:56;2.25;;;2.15;;
15573;SDS011;7888;46.748;8.102;2022-09-01T15:24:22;2.58;;;2.30;;
15573;SDS011;7888;46.748;8.102;2022-09-01T15:26:48;4.07;;;2.28;;
15573;SDS011;7888;46.748;8.102;2022-09-01T15:29:14;1.95;;;1.85;;
15573;SDS011;7888;46.748;8.102;2022-09-01T15:31:40;2.08;;;1.95;;
15573;SDS011;7888;46.748;8.102;2022-09-01T15:34:08;2.17;;;2.08;;
15573;SDS011;7888;46.748;8.102;2022-09-01T15:36:36;1.80;;;1.60;;
15573;SDS011;7888;46.748;8.102;2022-09-01T15:39:04;2.15;;;1.95;;
15573;SDS011;7888;46.748;8.102;2022-09-01T15:41:33;2.20;;;1.80;;
15573;SDS011;7888;46.748;8.102;2022-09-01T15:44:00;2.03;;;1.90;;
15573;SDS011;7888;46.748;8.102;2022-09-01T15:46:32;1.77;;;1.67;;
15573;SDS011;7888;46.748;8.102;2022-09-01T15:49:06;1.90;;;1.80;;
15573;SDS011;7888;46.748;8.102;2022-09-01T15:51:35;1.80;;;1.70;;
15573;SDS011;7888;46.748;8.102;2022-09-01T15:54:04;3.30;;;1.75;;
15573;SDS011;7888;46.748;8.102;2022-09-01T15:56:40;1.60;;;1.50;;
15573;SDS011;7888;46.748;8.102;2022-09-01T15:59:07;1.65;;;1.55;;
15573;SDS011;7888;46.748;8.102;2022-09-01T16:01:36;2.28;;;1.50;;
15573;SDS011;7888;46.748;8.102;2022-09-01T16:04:07;1.77;;;1.67;;
15573;SDS011;7888;46.748;8.102;2022-09-01T16:06:37;2.17;;;1.98;;
15573;SDS011;7888;46.748;8.102;2022-09-01T16:09:04;1.88;;;1.77;;
15573;SDS011;7888;46.748;8.102;2022-09-01T16:11:31;1.80;;;1.70;;
15573;SDS011;7888;46.748;8.102;2022-09-01T16:13:57;1.65;;;1.55;;
15573;SDS011;7888;46.748;8.102;2022-09-01T16:22:27;1.90;;;1.80;;
15573;SDS011;7888;46.748;8.102;2022-09-01T16:25:07;1.88;;;1.77;;
15573;SDS011;7888;46.748;8.102;2022-09-01T16:27:42;1.88;;;1.77;;
15573;SDS011;7888;46.748;8.102;2022-09-01T16:30:14;1.83;;;1.73;;
15573;SDS011;7888;46.748;8.102;2022-09-01T16:32:46;1.98;;;1.88;;
15573;SDS011;7888;46.748;8.102;2022-09-01T16:35:13;1.92;;;1.80;;
15573;SDS011;7888;46.748;8.102;2022-09-01T16:43:57;1.92;;;1.83;;
15573;SDS011;7888;46.748;8.102;2022-09-01T16:53:02;2.22;;;1.98;;